Visit the IPS Meteostar Home Page IPSM Whitted Airport FORECAST

Saint Petersburg, Florida

73

80

80

78

78

78

78

78

62
62
65
65
65
65
65
65

4 miles away at Whitted Airport 22:53 GMT

Weather:

 Clear 

Wind:

E 8 mph

Temperature:

73 ° F

Pressure:

30.20

Dew Point:

62 ° F

Relative Humidity:

68

Feels Like:

73 ° F

Visibility:

10 miles


Aviation Observations:

KSPG 242253Z 09007KT 10SM CLR 23/17 A3018 RMK AO2 SLP220 T02280167 =

National Weather Service Forecast:
Pinellas

pinellas- including the cities of st. Petersburg, clearwater, and largo
305 PM EDT FRI MAR 24 2017

TONIGHT

Partly cloudy. Lows in the lower 60s. East winds 10 to 15 mph.

SATURDAY

Mostly sunny. Highs around 80. Southeast winds 5 to 10 mph.

SATURDAY NIGHT

Partly cloudy. Lows in the mid 60s. North winds 5 to 10 mph shifting to the southeast after midnight.

SUNDAY

Mostly sunny. Highs around 80. Southeast winds 5 to 10 mph shifting to the south in the afternoon.

SUNDAY NIGHT

Mostly clear. Lows in the mid 60s. Northwest winds around 5 mph shifting to the east after midnight.

MONDAY THROUGH THURSDAY NIGHT

Mostly clear. Highs in the upper 70s. Lows in the mid 60s.

FRIDAY

Partly cloudy with a slight chance of showers. Highs in the upper 70s. Chance of rain 20 percent.


Visit the IPS Meteostar Home Page